Time;durP1;ratioP1;P1;durP2;ratioP2;P2;SDS_P1;SDS_P2;PMS_P1;PMS_P2;Temp;Humidity;BMP_temperature;BMP_pressure;BME280_temperature;BME280_humidity;BME280_pressure;Samples;Min_cycle;Max_cycle;Signal;HPM_P1;HPM_P2
2021/12/06 12:39:17;;;;;;;30.17;12.20;;;9.60;99.60;;;;;;5108334;28;20138;-65
2021/12/06 12:41:54;;;;;;;22.92;11.70;;;9.40;99.50;;;;;;5117397;28;20051;-65
2021/12/06 12:44:21;;;;;;;24.92;12.35;;;9.10;99.40;;;;;;5115777;28;20087;-64
2021/12/06 12:46:48;;;;;;;35.75;14.48;;;;;;;;;;5117343;28;20051;-59
2021/12/06 12:49:19;;;;;;;28.10;13.25;;;9.20;99.60;;;;;;5116981;28;20489;-59
2021/12/06 12:51:53;;;;;;;26.42;12.15;;;9.70;98.50;;;;;;5116947;28;20123;-60
2021/12/06 12:54:25;;;;;;;27.23;13.18;;;9.80;98.40;;;;;;5115865;28;20511;-65
2021/12/06 12:57:17;;;;;;;26.50;11.80;;;9.60;98.50;;;;;;5116896;28;20058;-62
2021/12/06 12:59:43;;;;;;;22.90;11.15;;;;;;;;;;5113832;28;20091;-61
2021/12/06 13:02:21;;;;;;;23.52;11.85;;;9.60;99.50;;;;;;5117351;28;20044;-60
2021/12/06 13:04:59;;;;;;;24.50;11.70;;;9.80;99.50;;;;;;5116996;28;20131;-61
2021/12/06 13:07:30;;;;;;;23.85;11.50;;;9.70;99.40;;;;;;5116085;27;20482;-58
2021/12/06 13:09:57;;;;;;;22.23;11.82;;;9.50;99.40;;;;;;5116885;28;20040;-60
2021/12/06 13:12:23;;;;;;;25.00;11.70;;;9.60;99.40;;;;;;5116525;28;20047;-59
2021/12/06 13:14:54;;;;;;;23.15;11.65;;;9.60;99.30;;;;;;5115306;28;20122;-61
2021/12/06 13:20:14;;;;;;;22.27;11.87;;;9.70;99.10;;;;;;5116720;28;20138;-60
2021/12/06 13:22:48;;;;;;;27.90;12.90;;;9.60;99.10;;;;;;5115234;28;20489;-61
2021/12/06 13:25:15;;;;;;;23.17;12.73;;;9.50;99.00;;;;;;5116642;28;20047;-61
2021/12/06 13:27:54;;;;;;;20.60;11.75;;;9.10;97.90;;;;;;5116582;28;20038;-59
2021/12/06 13:30:21;;;;;;;25.13;13.52;;;9.40;98.90;;;;;;5116554;28;20043;-59
2021/12/06 13:32:50;;;;;;;22.05;13.07;;;9.30;99.00;;;;;;5116502;28;20036;-59
2021/12/06 13:35:34;;;;;;;22.35;13.07;;;9.20;97.40;;;;;;5116466;28;20040;-59
2021/12/06 13:38:22;;;;;;;21.88;13.10;;;9.20;97.40;;;;;;5115732;28;20043;-58
2021/12/06 13:40:51;;;;;;;24.17;12.48;;;9.10;97.30;;;;;;5116235;28;20052;-59
2021/12/06 13:43:27;;;;;;;25.85;14.70;;;9.10;99.00;;;;;;5115912;28;20128;-59
2021/12/06 13:45:55;;;;;;;23.90;13.18;;;9.10;99.10;;;;;;5116223;28;20044;-61
2021/12/06 13:48:33;;;;;;;24.58;13.35;;;9.20;98.00;;;;;;5116153;28;20366;-61
2021/12/06 13:50:59;;;;;;;25.17;13.07;;;8.80;99.20;;;;;;5114951;28;20431;-62
2021/12/06 13:53:33;;;;;;;25.60;13.82;;;9.20;99.30;;;;;;5114915;28;20039;-60
2021/12/06 13:56:02;;;;;;;24.52;12.73;;;9.10;99.30;;;;;;5115657;28;20043;-61
2021/12/06 13:58:28;;;;;;;23.17;12.93;;;9.20;98.30;;;;;;5115968;28;20431;-60
2021/12/06 14:00:56;;;;;;;22.88;13.10;;;;;;;;;;5115630;28;20044;-62
2021/12/06 14:03:29;;;;;;;24.10;13.18;;;9.30;99.30;;;;;;5115924;28;20047;-60
2021/12/06 14:05:55;;;;;;;21.40;12.80;;;;;;;;;;5115180;28;20426;-65
2021/12/06 14:08:24;;;;;;;21.45;12.45;;;9.40;98.00;;;;;;5114759;28;20040;-66
2021/12/06 14:10:52;;;;;;;23.60;13.20;;;9.10;97.90;;;;;;5114563;28;20043;-66
2021/12/06 14:13:18;;;;;;;27.20;13.80;;;9.10;99.20;;;;;;5115471;28;20086;-65
2021/12/06 14:18:10;;;;;;;25.60;13.13;;;9.40;99.20;;;;;;5114860;28;20400;-66
2021/12/06 14:20:37;;;;;;;25.40;13.05;;;9.00;99.00;;;;;;5115129;28;20039;-65
2021/12/06 14:23:04;;;;;;;20.33;13.05;;;9.50;97.80;;;;;;5115126;28;20046;-65
2021/12/06 14:25:30;;;;;;;23.30;12.60;;;;;;;;;;5114932;28;20477;-65
2021/12/06 14:27:56;;;;;;;21.35;13.27;;;9.40;99.00;;;;;;5114852;28;20047;-64
2021/12/06 14:30:24;;;;;;;22.13;13.13;;;;;;;;;;5112082;28;20046;-64
2021/12/06 14:32:55;;;;;;;22.73;13.38;;;9.50;99.00;;;;;;5115326;28;20400;-64
2021/12/06 14:35:23;;;;;;;20.73;12.80;;;9.40;99.00;;;;;;5115271;28;20070;-64
2021/12/06 14:37:49;;;;;;;21.63;13.10;;;;;;;;;;5114835;28;20397;-65
2021/12/06 14:40:15;;;;;;;23.67;13.27;;;9.70;99.00;;;;;;5114738;28;20107;-64
2021/12/06 14:42:41;;;;;;;21.58;13.68;;;9.60;99.00;;;;;;5114742;28;20035;-64
2021/12/06 14:45:08;;;;;;;23.42;14.00;;;;;;;;;;5114756;28;20097;-65
2021/12/06 14:47:59;;;;;;;22.35;13.65;;;9.30;98.80;;;;;;5115037;28;20131;-64
2021/12/06 14:50:38;;;;;;;24.27;14.02;;;9.90;99.00;;;;;;5052157;28;20088;-65
2021/12/06 14:53:17;;;;;;;21.60;12.80;;;9.50;97.00;;;;;;5013680;28;20065;-66
2021/12/06 14:58:17;;;;;;;22.33;13.18;;;9.40;98.90;;;;;;5040502;28;20045;-66
2021/12/06 15:00:45;;;;;;;23.10;12.88;;;9.50;99.20;;;;;;5051810;28;20074;-66
2021/12/06 15:03:13;;;;;;;23.25;12.93;;;9.60;99.10;;;;;;5051832;28;20051;-66
2021/12/06 15:05:47;;;;;;;23.75;13.10;;;9.60;97.20;;;;;;5051757;28;20053;-66
2021/12/06 15:08:22;;;;;;;22.05;12.75;;;9.10;98.80;;;;;;5051575;28;20541;-66
2021/12/06 15:10:56;;;;;;;20.25;12.68;;;9.50;99.10;;;;;;5035098;28;20049;-66
2021/12/06 15:13:24;;;;;;;21.77;13.50;;;9.50;97.90;;;;;;5050703;28;20049;-65
2021/12/06 15:15:52;;;;;;;21.77;12.82;;;9.60;99.10;;;;;;5051628;28;20103;-66
2021/12/06 15:18:21;;;;;;;19.45;12.32;;;9.40;99.00;;;;;;5051564;28;20120;-66
2021/12/06 15:20:47;;;;;;;23.33;13.10;;;9.40;99.00;;;;;;5051534;28;20099;-66
2021/12/06 15:23:19;;;;;;;20.52;12.23;;;9.40;97.70;;;;;;5034034;28;20090;-66
2021/12/06 15:25:46;;;;;;;21.42;12.65;;;9.70;97.80;;;;;;5051231;28;20536;-66
2021/12/06 15:28:13;;;;;;;21.73;12.55;;;9.50;99.10;;;;;;5087154;28;20125;-65
2021/12/06 15:30:38;;;;;;;23.00;12.93;;;9.40;99.10;;;;;;5093659;28;20044;-66
2021/12/06 15:33:07;;;;;;;23.42;12.85;;;9.50;99.00;;;;;;5093634;28;20123;-66
2021/12/06 15:35:37;;;;;;;23.65;14.13;;;9.60;99.10;;;;;;5107610;28;20127;-65
2021/12/06 15:38:25;;;;;;;23.20;13.07;;;9.30;99.00;;;;;;5113553;28;20039;-66
2021/12/06 15:40:58;;;;;;;20.35;12.23;;;9.50;98.00;;;;;;5114149;28;20070;-66
2021/12/06 15:43:24;;;;;;;21.92;12.93;;;9.50;99.10;;;;;;5095748;28;20118;-65
2021/12/06 15:45:50;;;;;;;19.80;12.48;;;;;;;;;;5112183;28;20043;-65
2021/12/06 15:48:16;;;;;;;20.77;12.05;;;9.80;99.20;;;;;;5114183;28;20092;-66
2021/12/06 15:50:42;;;;;;;18.48;11.52;;;9.50;99.10;;;;;;5113666;28;20477;-66
2021/12/06 15:53:14;;;;;;;22.55;12.25;;;9.70;97.30;;;;;;5093698;28;20408;-66
2021/12/06 15:55:40;;;;;;;21.70;12.82;;;9.50;98.00;;;;;;5098755;28;20051;-66
2021/12/06 15:58:09;;;;;;;20.73;12.52;;;9.50;99.10;;;;;;5114061;28;20050;-67
2021/12/06 16:00:38;;;;;;;23.08;12.75;;;9.60;99.20;;;;;;5113679;28;20043;-66
2021/12/06 16:03:05;;;;;;;21.77;11.98;;;9.80;99.20;;;;;;5112454;28;20040;-66
2021/12/06 16:05:33;;;;;;;22.60;12.88;;;9.60;99.20;;;;;;5114019;28;20047;-66
2021/12/06 16:08:02;;;;;;;19.70;11.70;;;9.70;99.20;;;;;;5112640;28;20092;-66
2021/12/06 16:10:29;;;;;;;23.15;12.48;;;9.70;99.10;;;;;;5113441;28;20449;-67
2021/12/06 16:12:56;;;;;;;19.10;11.60;;;9.70;97.90;;;;;;5113831;28;20370;-66
2021/12/06 16:15:25;;;;;;;20.65;12.23;;;;;;;;;;5113685;28;20052;-67
2021/12/06 16:17:59;;;;;;;18.95;11.77;;;9.00;98.90;;;;;;5112161;28;20046;-66
2021/12/06 16:20:26;;;;;;;23.67;12.45;;;9.40;98.00;;;;;;5113639;28;20054;-66
2021/12/06 16:22:52;;;;;;;19.30;11.43;;;9.20;99.10;;;;;;5113771;28;20043;-66
2021/12/06 16:25:22;;;;;;;19.73;10.82;;;9.70;99.20;;;;;;5114063;28;20048;-67
2021/12/06 16:28:00;;;;;;;19.73;11.88;;;9.50;97.30;;;;;;5113433;28;20077;-67
2021/12/06 16:30:26;;;;;;;21.85;11.68;;;9.50;99.10;;;;;;5112948;28;20055;-66
2021/12/06 16:32:55;;;;;;;21.05;12.02;;;9.50;99.10;;;;;;5113004;28;20044;-65
2021/12/06 16:35:23;;;;;;;19.85;11.32;;;9.50;99.10;;;;;;5112557;28;20435;-65
2021/12/06 16:37:50;;;;;;;17.75;11.20;;;9.40;98.80;;;;;;5112771;28;20565;-65
2021/12/06 16:40:18;;;;;;;21.05;11.07;;;;;;;;;;5111977;28;20136;-65
2021/12/06 16:42:58;;;;;;;24.98;10.80;;;;;;;;;;5115310;28;20050;-65
2021/12/06 16:45:24;;;;;;;20.58;11.55;;;9.50;98.20;;;;;;5117141;28;20058;-65
2021/12/06 16:47:54;;;;;;;20.80;10.98;;;9.40;98.10;;;;;;5117882;28;20126;-65
2021/12/06 16:50:28;;;;;;;20.25;10.95;;;9.50;99.20;;;;;;5116991;28;20062;-65
2021/12/06 16:52:56;;;;;;;18.90;10.77;;;9.50;99.20;;;;;;5117299;28;20071;-65
2021/12/06 16:55:27;;;;;;;18.35;10.73;;;9.40;99.10;;;;;;5115728;28;20078;-66
2021/12/06 16:57:58;;;;;;;19.60;11.63;;;9.60;97.90;;;;;;5116895;27;20043;-65
2021/12/06 17:00:25;;;;;;;19.85;10.75;;;9.40;99.10;;;;;;5114152;28;20056;-67
2021/12/06 17:03:06;;;;;;;19.15;11.00;;;9.50;99.20;;;;;;5116657;28;20374;-66
2021/12/06 17:05:40;;;;;;;19.27;11.55;;;9.40;99.60;;;;;;5117072;28;20459;-67
2021/12/06 17:08:12;;;;;;;20.80;11.93;;;9.40;98.40;;;;;;5116371;28;20396;-68
2021/12/06 17:10:43;;;;;;;22.15;13.05;;;9.00;99.90;;;;;;5116109;28;20441;-67
2021/12/06 17:13:09;;;;;;;22.15;11.48;;;9.40;99.90;;;;;;5115014;28;20088;-66
2021/12/06 17:15:37;;;;;;;20.20;11.23;;;9.50;99.90;;;;;;5116879;28;20140;-67
2021/12/06 17:18:06;;;;;;;21.77;10.95;;;9.60;99.90;;;;;;5116500;28;20044;-67
2021/12/06 17:20:34;;;;;;;20.13;11.25;;;9.60;99.00;;;;;;5116698;28;20048;-66
2021/12/06 17:23:01;;;;;;;22.13;10.98;;;9.50;98.80;;;;;;5116417;28;20382;-67
2021/12/06 17:25:33;;;;;;;20.48;10.98;;;9.50;99.90;;;;;;5116304;28;20176;-67
2021/12/06 17:28:19;;;;;;;21.45;11.77;;;9.30;98.30;;;;;;5116264;28;20040;-67
2021/12/06 17:30:50;;;;;;;19.88;11.32;;;9.10;99.90;;;;;;5116560;28;20048;-66
2021/12/06 17:33:22;;;;;;;20.70;11.15;;;9.40;99.90;;;;;;5115186;28;20044;-58
2021/12/06 17:35:52;;;;;;;21.53;10.73;;;9.60;99.80;;;;;;5116479;28;20036;-59
2021/12/06 17:38:19;;;;;;;21.67;11.95;;;;;;;;;;5116001;28;20063;-58
2021/12/06 17:40:45;;;;;;;19.88;11.15;;;9.60;99.00;;;;;;5115955;28;20044;-59
2021/12/06 17:43:11;;;;;;;22.52;10.85;;;9.30;99.90;;;;;;5114765;28;20039;-59
2021/12/06 17:45:37;;;;;;;18.60;10.70;;;9.40;99.90;;;;;;5115035;28;20408;-59
2021/12/06 17:48:04;;;;;;;20.60;10.85;;;9.00;99.70;;;;;;5115926;28;20046;-58
2021/12/06 17:50:30;;;;;;;19.77;11.35;;;9.50;99.90;;;;;;5115854;28;20050;-58
2021/12/06 17:52:55;;;;;;;19.17;11.20;;;9.00;99.70;;;;;;5115356;28;20047;-59
2021/12/06 17:55:21;;;;;;;21.05;11.18;;;9.40;99.90;;;;;;5115596;28;20039;-59
2021/12/06 17:57:50;;;;;;;19.40;11.32;;;9.50;99.90;;;;;;5116034;28;20119;-58
2021/12/06 18:00:17;;;;;;;19.95;11.48;;;9.30;99.80;;;;;;5115919;28;20095;-58
2021/12/06 18:02:43;;;;;;;19.90;11.63;;;9.30;99.80;;;;;;5115593;27;20114;-58
2021/12/06 18:05:14;;;;;;;20.13;11.20;;;;;;;;;;5114860;28;20454;-62
2021/12/06 18:07:41;;;;;;;25.10;12.00;;;9.00;99.80;;;;;;5113310;28;20043;-64
2021/12/06 18:10:08;;;;;;;20.58;11.63;;;9.30;99.90;;;;;;5115794;28;20051;-65
2021/12/06 18:12:33;;;;;;;19.27;11.13;;;9.40;99.80;;;;;;5111773;28;20028;-62
2021/12/06 18:15:01;;;;;;;25.13;12.90;;;9.20;99.80;;;;;;5108186;28;20515;-61
2021/12/06 18:17:27;;;;;;;21.80;11.88;;;9.20;99.80;;;;;;5114098;28;20051;-59
2021/12/06 18:19:53;;;;;;;22.80;12.18;;;9.40;99.80;;;;;;5115380;28;20044;-59
2021/12/06 18:22:19;;;;;;;23.30;13.73;;;;;;;;;;5097069;28;20055;-59
2021/12/06 18:24:45;;;;;;;22.73;13.27;;;9.20;99.80;;;;;;5115478;28;20044;-59
2021/12/06 18:27:12;;;;;;;22.95;12.93;;;9.30;99.80;;;;;;5114703;28;20060;-59
2021/12/06 18:29:38;;;;;;;21.83;13.30;;;;;;;;;;5114618;28;20051;-59
2021/12/06 18:32:05;;;;;;;21.77;13.02;;;9.40;99.80;;;;;;5115381;27;20044;-59
2021/12/06 18:34:33;;;;;;;23.67;13.77;;;9.20;98.70;;;;;;5114158;28;20118;-58
2021/12/06 18:36:58;;;;;;;27.45;14.15;;;9.20;99.70;;;;;;5115070;28;20046;-59
2021/12/06 18:39:31;;;;;;;24.05;13.70;;;9.40;99.70;;;;;;5114142;28;20489;-60
2021/12/06 18:41:57;;;;;;;25.45;14.32;;;9.20;99.70;;;;;;5113159;28;20058;-59
2021/12/06 18:46:54;;;;;;;26.75;14.60;;;9.30;98.90;;;;;;5115043;28;20050;-60
2021/12/06 18:49:22;;;;;;;23.55;14.18;;;;;;;;;;5114724;28;20472;-58
2021/12/06 18:51:49;;;;;;;25.95;14.70;;;9.00;99.60;;;;;;5113929;28;20462;-58
2021/12/06 18:54:16;;;;;;;29.27;15.90;;;9.30;99.80;;;;;;5114854;28;20044;-58
2021/12/06 18:56:41;;;;;;;26.63;15.02;;;9.30;99.70;;;;;;5113746;28;20427;-58
2021/12/06 18:59:07;;;;;;;26.45;14.93;;;9.30;99.70;;;;;;5115054;28;20108;-59
2021/12/06 19:01:34;;;;;;;25.95;15.13;;;;;;;;;;5100909;28;20405;-67
2021/12/06 19:04:01;;;;;;;24.42;15.02;;;9.60;99.60;;;;;;5113744;28;20046;-66
2021/12/06 19:06:27;;;;;;;27.33;16.60;;;9.40;99.60;;;;;;5112555;28;20039;-66
2021/12/06 19:08:52;;;;;;;27.98;15.82;;;9.40;99.60;;;;;;5113646;28;20047;-67
2021/12/06 19:11:19;;;;;;;27.60;15.98;;;;;;;;;;5113733;28;20128;-66
2021/12/06 19:13:44;;;;;;;26.55;16.83;;;9.00;99.40;;;;;;5112812;28;20039;-67
2021/12/06 19:16:10;;;;;;;28.58;17.05;;;9.30;99.50;;;;;;5113156;28;20404;-66
2021/12/06 19:18:37;;;;;;;30.92;16.35;;;9.30;98.00;;;;;;5113592;28;20039;-67
2021/12/06 19:21:03;;;;;;;28.38;16.38;;;9.30;99.40;;;;;;5099020;28;20504;-67
2021/12/06 19:23:29;;;;;;;30.70;16.70;;;9.30;99.30;;;;;;5093208;28;20097;-66
2021/12/06 19:25:56;;;;;;;26.48;16.17;;;9.20;99.40;;;;;;5092912;28;20071;-66
2021/12/06 19:28:26;;;;;;;29.15;16.15;;;9.20;98.30;;;;;;5092816;28;20048;-67
2021/12/06 19:30:57;;;;;;;30.80;17.50;;;9.20;98.30;;;;;;5101382;28;20515;-66
2021/12/06 19:33:23;;;;;;;30.98;17.23;;;;;;;;;;5111843;28;20119;-66
2021/12/06 19:35:50;;;;;;;29.33;17.08;;;;;;;;;;5113056;28;20055;-66
2021/12/06 19:38:16;;;;;;;33.47;17.48;;;9.20;99.40;;;;;;5112954;28;20084;-66
2021/12/06 19:40:43;;;;;;;33.05;17.67;;;;;;;;;;5112552;28;20518;-67
2021/12/06 19:43:09;;;;;;;29.25;16.75;;;8.80;99.40;;;;;;5112130;28;20044;-66
2021/12/06 19:45:37;;;;;;;29.08;16.85;;;;;;;;;;5112608;28;20044;-67
2021/12/06 19:48:04;;;;;;;30.75;17.08;;;;;;;;;;5113294;28;20045;-66
2021/12/06 19:50:30;;;;;;;27.65;16.73;;;;;;;;;;5113211;28;20453;-66
2021/12/06 19:53:04;;;;;;;32.15;18.38;;;9.30;98.00;;;;;;5103992;28;20052;-66
2021/12/06 19:55:31;;;;;;;28.65;16.23;;;;;;;;;;5099954;28;20079;-65
2021/12/06 19:57:57;;;;;;;31.70;18.25;;;9.10;99.50;;;;;;5113185;28;20449;-66
2021/12/06 20:00:23;;;;;;;27.60;16.30;;;;;;;;;;5112410;28;20116;-67
2021/12/06 20:02:49;;;;;;;30.48;17.13;;;8.70;99.40;;;;;;5110058;28;20047;-66
2021/12/06 20:05:17;;;;;;;29.20;16.50;;;9.30;98.40;;;;;;5091600;28;20048;-61
2021/12/06 20:07:43;;;;;;;26.67;16.38;;;;;;;;;;5096668;28;20039;-61
2021/12/06 20:10:11;;;;;;;25.95;15.73;;;;;;;;;;5112768;28;20040;-60
2021/12/06 20:12:36;;;;;;;28.20;16.30;;;9.20;99.50;;;;;;5112592;28;20114;-59
2021/12/06 20:15:04;;;;;;;30.17;16.48;;;;;;;;;;5112785;28;20088;-59
2021/12/06 20:17:30;;;;;;;24.42;15.35;;;;;;;;;;5115735;28;20039;-60
2021/12/06 20:19:56;;;;;;;25.85;14.93;;;9.20;98.40;;;;;;5115566;28;20047;-58
2021/12/06 20:22:21;;;;;;;26.92;16.08;;;8.60;99.40;;;;;;5114469;28;20516;-58
2021/12/06 20:24:47;;;;;;;26.10;15.70;;;9.10;99.50;;;;;;5116514;28;20039;-58
2021/12/06 20:27:14;;;;;;;26.40;15.55;;;9.10;99.50;;;;;;5116552;28;20450;-58
2021/12/06 20:29:40;;;;;;;24.48;15.10;;;9.10;99.50;;;;;;5116820;28;20054;-58
2021/12/06 20:32:06;;;;;;;26.52;15.18;;;9.20;99.20;;;;;;5116637;28;20536;-59
2021/12/06 20:34:32;;;;;;;24.00;15.27;;;9.10;99.50;;;;;;5116065;28;20082;-59
2021/12/06 20:36:58;;;;;;;23.60;14.40;;;;;;;;;;5116596;27;20071;-60
2021/12/06 20:39:24;;;;;;;22.00;13.80;;;9.00;99.50;;;;;;5114951;27;20074;-59
2021/12/06 20:41:50;;;;;;;27.58;15.20;;;;;;;;;;5096156;28;20048;-58
2021/12/06 20:44:16;;;;;;;23.05;13.52;;;8.90;99.40;;;;;;5095911;28;20044;-62
2021/12/06 20:46:42;;;;;;;22.45;13.80;;;9.10;99.50;;;;;;5112993;28;20039;-59
2021/12/06 20:49:08;;;;;;;24.88;13.93;;;;;;;;;;5116493;28;20046;-61
2021/12/06 20:51:34;;;;;;;24.50;13.68;;;;;;;;;;5103971;28;20124;-58
2021/12/06 20:54:06;;;;;;;26.05;14.80;;;9.20;98.30;;;;;;5095629;28;20483;-61
2021/12/06 20:56:32;;;;;;;22.30;13.10;;;9.10;99.40;;;;;;5108493;28;20457;-66
2021/12/06 20:58:58;;;;;;;21.80;13.05;;;;;;;;;;5116276;28;20043;-60
2021/12/06 21:01:24;;;;;;;22.17;12.93;;;9.10;99.40;;;;;;5116171;28;20397;-58
2021/12/06 21:03:50;;;;;;;23.35;12.50;;;9.20;99.40;;;;;;5115860;28;20043;-65
2021/12/06 21:06:17;;;;;;;23.60;12.98;;;;;;;;;;5115456;28;20043;-66
2021/12/06 21:08:43;;;;;;;19.88;12.13;;;8.90;99.30;;;;;;5094054;28;20051;-64
2021/12/06 21:14:36;;;;;;;21.42;12.40;;;8.70;99.50;;;;;;5060051;28;20147;-67
2021/12/06 21:17:00;;;;;;;23.58;12.18;;;;;;;;;;5059993;28;20049;-66
2021/12/06 21:19:31;;;;;;;21.50;11.55;;;;;;;;;;5072151;28;20056;-67
2021/12/06 21:21:57;;;;;;;21.92;12.43;;;;;;;;;;5039915;28;20040;-68
2021/12/06 21:24:23;;;;;;;23.25;12.80;;;9.30;99.90;;;;;;5072510;28;20056;-68
2021/12/06 21:26:49;;;;;;;22.65;12.00;;;9.20;99.90;;;;;;5072189;28;20052;-67
2021/12/06 21:29:15;;;;;;;18.65;11.88;;;;;;;;;;5071901;28;20444;-64
2021/12/06 21:31:41;;;;;;;22.20;11.98;;;9.20;99.90;;;;;;5072305;28;20059;-64
2021/12/06 21:34:07;;;;;;;19.77;12.18;;;;;;;;;;5072073;28;20040;-64
2021/12/06 21:36:33;;;;;;;20.40;11.85;;;9.30;99.90;;;;;;5072451;28;20045;-64
2021/12/06 21:38:59;;;;;;;19.35;11.73;;;;;;;;;;5071957;28;20113;-64
2021/12/06 21:41:25;;;;;;;21.23;10.95;;;9.30;99.90;;;;;;5072416;28;20048;-64
2021/12/06 21:43:52;;;;;;;19.38;10.70;;;;;;;;;;5057199;28;20082;-64
2021/12/06 21:46:18;;;;;;;18.17;10.95;;;9.40;99.90;;;;;;5114894;28;20055;-65
2021/12/06 21:48:44;;;;;;;21.08;11.93;;;;;;;;;;5115367;28;20039;-64
2021/12/06 21:51:10;;;;;;;20.50;11.98;;;9.50;99.90;;;;;;5114871;28;20032;-64
2021/12/06 21:53:36;;;;;;;19.48;11.40;;;9.30;99.90;;;;;;5115310;28;20184;-64
2021/12/06 21:56:02;;;;;;;20.88;11.27;;;;;;;;;;5115234;28;20539;-65
2021/12/06 21:58:29;;;;;;;19.92;11.23;;;;;;;;;;5115181;28;20118;-64
2021/12/06 22:00:58;;;;;;;19.45;10.63;;;;;;;;;;5114571;28;20040;-65
2021/12/06 22:03:27;;;;;;;20.25;11.35;;;9.20;99.90;;;;;;5115139;28;20035;-65
2021/12/06 22:06:00;;;;;;;18.10;10.57;;;;;;;;;;5114699;28;20134;-64
2021/12/06 22:08:26;;;;;;;18.75;11.40;;;9.40;99.90;;;;;;5114833;28;20370;-67
2021/12/06 22:10:52;;;;;;;17.90;10.63;;;9.10;99.90;;;;;;5114852;28;20043;-67
2021/12/06 22:13:19;;;;;;;17.67;10.93;;;;;;;;;;5114906;28;20510;-67
2021/12/06 22:15:45;;;;;;;16.02;10.27;;;;;;;;;;5114296;28;20047;-67
2021/12/06 22:18:11;;;;;;;17.50;9.85;;;9.30;99.90;;;;;;5114496;28;20035;-58
2021/12/06 22:20:37;;;;;;;17.25;10.38;;;;;;;;;;5114259;28;20046;-59
2021/12/06 22:23:03;;;;;;;17.08;10.25;;;;;;;;;;5113192;28;20036;-60
2021/12/06 22:25:29;;;;;;;18.58;10.63;;;;;;;;;;5113919;28;20039;-58
2021/12/06 22:27:55;;;;;;;17.48;10.00;;;9.50;99.90;;;;;;5114268;28;20054;-59
2021/12/06 22:30:22;;;;;;;15.40;9.60;;;;;;;;;;5113855;28;20074;-58
2021/12/06 22:32:51;;;;;;;17.05;9.35;;;9.40;99.40;;;;;;5114465;28;20101;-59
2021/12/06 22:35:17;;;;;;;16.55;9.60;;;;;;;;;;5114168;28;20050;-58
2021/12/06 22:37:44;;;;;;;15.77;9.13;;;;;;;;;;5112989;28;20050;-58
2021/12/06 22:40:10;;;;;;;16.48;9.38;;;;;;;;;;5112898;28;20429;-62
2021/12/06 22:42:37;;;;;;;16.35;9.30;;;;;;;;;;5113934;28;20040;-59
2021/12/06 22:45:03;;;;;;;14.07;9.00;;;;;;;;;;5113789;28;20047;-61
2021/12/06 22:47:30;;;;;;;15.43;9.57;;;;;;;;;;5111744;28;20032;-67
2021/12/06 22:49:56;;;;;;;15.65;9.25;;;9.40;99.90;;;;;;5114570;28;20412;-67
2021/12/06 22:52:21;;;;;;;14.55;9.15;;;9.30;99.90;;;;;;5114184;28;20051;-68
2021/12/06 22:54:48;;;;;;;14.27;9.10;;;;;;;;;;5114107;28;20048;-68
2021/12/06 22:57:14;;;;;;;13.93;8.63;;;;;;;;;;5113319;28;20089;-65
2021/12/06 22:59:40;;;;;;;13.77;8.48;;;8.80;99.90;;;;;;5113678;28;20062;-67
2021/12/06 23:02:08;;;;;;;13.80;8.60;;;9.30;99.90;;;;;;5114806;28;20041;-67
2021/12/06 23:04:34;;;;;;;13.23;8.35;;;;;;;;;;5114330;28;20052;-66
2021/12/06 23:07:00;;;;;;;16.35;8.55;;;9.30;99.90;;;;;;5112163;28;20043;-67
2021/12/06 23:09:25;;;;;;;14.10;8.57;;;9.20;99.90;;;;;;5114207;28;20492;-68
2021/12/06 23:11:53;;;;;;;14.30;8.68;;;;;;;;;;5114239;28;20108;-67
2021/12/06 23:14:19;;;;;;;13.35;8.27;;;9.00;99.90;;;;;;5114297;28;20051;-68
2021/12/06 23:16:46;;;;;;;12.07;7.95;;;9.30;99.90;;;;;;5112738;28;20051;-68
2021/12/06 23:19:12;;;;;;;13.13;8.27;;;;;;;;;;5114079;28;20039;-68
2021/12/06 23:21:38;;;;;;;13.65;8.00;;;9.30;99.40;;;;;;5113878;28;20110;-68
2021/12/06 23:24:05;;;;;;;12.15;7.65;;;9.20;99.90;;;;;;5113468;28;20480;-67
2021/12/06 23:26:31;;;;;;;12.90;8.63;;;9.10;99.90;;;;;;5113824;28;20052;-67
2021/12/06 23:28:57;;;;;;;11.63;7.65;;;9.30;99.90;;;;;;5114340;28;20040;-67
2021/12/06 23:31:23;;;;;;;13.95;7.72;;;;;;;;;;5113890;28;20061;-67
2021/12/06 23:33:51;;;;;;;13.45;7.93;;;9.20;99.90;;;;;;5113596;28;20043;-67
2021/12/06 23:36:19;;;;;;;12.20;7.88;;;9.20;99.20;;;;;;5112768;28;20036;-66
2021/12/06 23:46:38;;;;;;;11.70;7.32;;;;;;;;;;5113305;28;20035;-66
2021/12/06 23:49:12;;;;;;;12.75;7.68;;;9.00;98.50;;;;;;5114191;28;20114;-67
2021/12/06 23:51:39;;;;;;;11.57;7.60;;;8.80;99.90;;;;;;5112213;28;20043;-67
2021/12/06 23:54:05;;;;;;;12.38;7.53;;;9.10;99.90;;;;;;5113559;28;20035;-66
2021/12/06 23:56:30;;;;;;;12.77;7.88;;;9.00;99.90;;;;;;5114099;28;20176;-67
2021/12/06 23:58:57;;;;;;;11.55;7.85;;;;;;;;;;5112986;28;20563;-66
